sensor_id;sensor_type;location;lat;lon;timestamp;pressure;altitude;pressure_sealevel;temperature;humidity
60061;BME280;45933;51.336;12.612;2024-01-16T00:02:18;98525.25;;;2.18;60.45
60061;BME280;45933;51.336;12.612;2024-01-16T00:04:43;98536.41;;;2.23;60.63
60061;BME280;45933;51.336;12.612;2024-01-16T00:07:09;98530.41;;;2.18;60.83
60061;BME280;45933;51.336;12.612;2024-01-16T00:09:34;98526.97;;;2.25;60.56
60061;BME280;45933;51.336;12.612;2024-01-16T00:12:00;98531.22;;;2.16;61.14
60061;BME280;45933;51.336;12.612;2024-01-16T00:14:25;98535.56;;;2.23;60.75
60061;BME280;45933;51.336;12.612;2024-01-16T00:16:50;98540.69;;;2.18;60.72
60061;BME280;45933;51.336;12.612;2024-01-16T00:19:16;98544.94;;;2.16;61.00
60061;BME280;45933;51.336;12.612;2024-01-16T00:21:43;98547.50;;;2.16;61.17
60061;BME280;45933;51.336;12.612;2024-01-16T00:24:11;98559.50;;;2.14;60.90
60061;BME280;45933;51.336;12.612;2024-01-16T00:26:37;98558.69;;;2.17;60.94
60061;BME280;45933;51.336;12.612;2024-01-16T00:29:02;98550.09;;;2.21;60.60
60061;BME280;45933;51.336;12.612;2024-01-16T00:31:27;98554.38;;;2.20;60.65
60061;BME280;45933;51.336;12.612;2024-01-16T00:33:53;98556.94;;;2.20;60.71
60061;BME280;45933;51.336;12.612;2024-01-16T00:36:18;98560.38;;;2.13;60.83
60061;BME280;45933;51.336;12.612;2024-01-16T00:38:44;98563.81;;;2.17;60.78
60061;BME280;45933;51.336;12.612;2024-01-16T00:41:10;98555.19;;;2.08;61.02
60061;BME280;45933;51.336;12.612;2024-01-16T00:43:35;98562.06;;;2.16;60.63
60061;BME280;45933;51.336;12.612;2024-01-16T00:46:01;98565.50;;;2.13;60.61
60061;BME280;45933;51.336;12.612;2024-01-16T00:48:26;98568.06;;;2.16;60.69
60061;BME280;45933;51.336;12.612;2024-01-16T00:50:51;98570.66;;;2.15;60.69
60061;BME280;45933;51.336;12.612;2024-01-16T00:53:17;98573.22;;;2.13;60.72
60061;BME280;45933;51.336;12.612;2024-01-16T00:55:42;98571.50;;;2.12;60.71
60061;BME280;45933;51.336;12.612;2024-01-16T00:58:07;98559.50;;;2.11;60.59
60061;BME280;45933;51.336;12.612;2024-01-16T01:00:33;98580.94;;;2.12;60.92
60061;BME280;45933;51.336;12.612;2024-01-16T01:03:00;98573.22;;;2.13;60.55
60061;BME280;45933;51.336;12.612;2024-01-16T01:05:25;98582.66;;;2.11;60.82
60061;BME280;45933;51.336;12.612;2024-01-16T01:07:54;98584.34;;;2.12;60.67
60061;BME280;45933;51.336;12.612;2024-01-16T01:10:20;98592.94;;;2.17;60.63
60061;BME280;45933;51.336;12.612;2024-01-16T01:12:45;98586.94;;;2.15;60.65
60061;BME280;45933;51.336;12.612;2024-01-16T01:15:10;98589.50;;;2.14;60.56
60061;BME280;45933;51.336;12.612;2024-01-16T01:17:35;98584.38;;;2.17;60.61
60061;BME280;45933;51.336;12.612;2024-01-16T01:20:01;98597.25;;;2.17;60.63
60061;BME280;45933;51.336;12.612;2024-01-16T01:22:26;98598.91;;;2.16;60.52
60061;BME280;45933;51.336;12.612;2024-01-16T01:24:52;98605.78;;;2.16;60.72
60061;BME280;45933;51.336;12.612;2024-01-16T01:27:17;98608.38;;;2.20;60.20
60061;BME280;45933;51.336;12.612;2024-01-16T01:29:42;98599.81;;;2.18;60.34
60061;BME280;45933;51.336;12.612;2024-01-16T01:32:07;98616.94;;;2.19;60.18
60061;BME280;45933;51.336;12.612;2024-01-16T01:34:33;98616.06;;;2.14;60.15
60061;BME280;45933;51.336;12.612;2024-01-16T01:36:58;98621.22;;;2.19;59.93
60061;BME280;45933;51.336;12.612;2024-01-16T01:39:24;98624.69;;;2.22;60.02
60061;BME280;45933;51.336;12.612;2024-01-16T01:41:49;98629.81;;;2.25;59.95
60061;BME280;45933;51.336;12.612;2024-01-16T01:44:15;98637.50;;;2.21;59.72
60061;BME280;45933;51.336;12.612;2024-01-16T01:46:43;98628.97;;;2.23;59.58
60061;BME280;45933;51.336;12.612;2024-01-16T01:49:11;98628.97;;;2.26;59.78
60061;BME280;45933;51.336;12.612;2024-01-16T01:51:37;98638.38;;;2.23;59.44
60061;BME280;45933;51.336;12.612;2024-01-16T01:54:02;98638.41;;;2.29;59.64
60061;BME280;45933;51.336;12.612;2024-01-16T01:56:28;98638.41;;;2.30;59.54
60061;BME280;45933;51.336;12.612;2024-01-16T01:58:54;98643.56;;;2.29;59.44
60061;BME280;45933;51.336;12.612;2024-01-16T02:01:21;98656.38;;;2.24;59.27
60061;BME280;45933;51.336;12.612;2024-01-16T02:03:49;98651.28;;;2.27;59.27
60061;BME280;45933;51.336;12.612;2024-01-16T02:06:15;98651.28;;;2.30;58.97
60061;BME280;45933;51.336;12.612;2024-01-16T02:08:41;98652.13;;;2.31;58.94
60061;BME280;45933;51.336;12.612;2024-01-16T02:11:07;98656.44;;;2.35;59.08
60061;BME280;45933;51.336;12.612;2024-01-16T02:13:32;98659.88;;;2.32;58.80
60061;BME280;45933;51.336;12.612;2024-01-16T02:15:58;98674.44;;;2.36;58.76
60061;BME280;45933;51.336;12.612;2024-01-16T02:18:23;98663.31;;;2.39;58.90
60061;BME280;45933;51.336;12.612;2024-01-16T02:20:49;98665.88;;;2.39;58.84
60061;BME280;45933;51.336;12.612;2024-01-16T02:23:14;98673.56;;;2.34;58.63
60061;BME280;45933;51.336;12.612;2024-01-16T02:25:41;98671.88;;;2.33;58.71
60061;BME280;45933;51.336;12.612;2024-01-16T02:28:07;98677.00;;;2.36;58.89
60061;BME280;45933;51.336;12.612;2024-01-16T02:30:32;98679.56;;;2.35;58.76
60061;BME280;45933;51.336;12.612;2024-01-16T02:32:58;98681.31;;;2.39;58.99
60061;BME280;45933;51.336;12.612;2024-01-16T02:35:23;98681.31;;;2.42;58.99
60061;BME280;45933;51.336;12.612;2024-01-16T02:37:49;98698.47;;;2.42;59.07
60061;BME280;45933;51.336;12.612;2024-01-16T02:40:14;98688.22;;;2.43;58.85
60061;BME280;45933;51.336;12.612;2024-01-16T02:42:40;98698.50;;;2.43;58.73
60061;BME280;45933;51.336;12.612;2024-01-16T02:45:06;98695.06;;;2.44;58.90
60061;BME280;45933;51.336;12.612;2024-01-16T02:47:31;98698.47;;;2.42;59.18
60061;BME280;45933;51.336;12.612;2024-01-16T02:49:58;98698.50;;;2.46;59.24
60061;BME280;45933;51.336;12.612;2024-01-16T02:52:24;98694.19;;;2.47;59.18
60061;BME280;45933;51.336;12.612;2024-01-16T02:54:49;98699.34;;;2.45;58.99
60061;BME280;45933;51.336;12.612;2024-01-16T02:57:14;98712.22;;;2.45;58.92
60061;BME280;45933;51.336;12.612;2024-01-16T02:59:43;98711.31;;;2.42;58.99
60061;BME280;45933;51.336;12.612;2024-01-16T03:02:08;98711.34;;;2.45;59.09
60061;BME280;45933;51.336;12.612;2024-01-16T03:04:34;98700.22;;;2.43;58.77
60061;BME280;45933;51.336;12.612;2024-01-16T03:07:00;98712.22;;;2.47;58.92
60061;BME280;45933;51.336;12.612;2024-01-16T03:09:25;98711.34;;;2.48;58.99
60061;BME280;45933;51.336;12.612;2024-01-16T03:11:50;98711.34;;;2.46;58.89
60061;BME280;45933;51.336;12.612;2024-01-16T03:14:15;98712.22;;;2.45;58.83
60061;BME280;45933;51.336;12.612;2024-01-16T03:16:41;98719.94;;;2.44;58.74
60061;BME280;45933;51.336;12.612;2024-01-16T03:19:06;98711.34;;;2.43;58.85
60061;BME280;45933;51.336;12.612;2024-01-16T03:21:31;98710.47;;;2.41;58.88
60061;BME280;45933;51.336;12.612;2024-01-16T03:23:56;98718.19;;;2.40;58.58
60061;BME280;45933;51.336;12.612;2024-01-16T03:26:22;98712.19;;;2.39;58.88
60061;BME280;45933;51.336;12.612;2024-01-16T03:28:47;98714.75;;;2.41;58.79
60061;BME280;45933;51.336;12.612;2024-01-16T03:31:13;98722.47;;;2.38;58.83
60061;BME280;45933;51.336;12.612;2024-01-16T03:33:39;98727.63;;;2.38;58.82
60061;BME280;45933;51.336;12.612;2024-01-16T03:36:07;98728.47;;;2.38;58.62
60061;BME280;45933;51.336;12.612;2024-01-16T03:38:33;98734.44;;;2.35;58.54
60061;BME280;45933;51.336;12.612;2024-01-16T03:40:59;98730.16;;;2.33;58.41
60061;BME280;45933;51.336;12.612;2024-01-16T03:43:24;98736.13;;;2.30;58.28
60061;BME280;45933;51.336;12.612;2024-01-16T03:45:49;98743.84;;;2.32;58.27
60061;BME280;45933;51.336;12.612;2024-01-16T03:48:15;98737.84;;;2.27;58.47
60061;BME280;45933;51.336;12.612;2024-01-16T03:50:40;98748.94;;;2.24;58.57
60061;BME280;45933;51.336;12.612;2024-01-16T03:53:08;98736.09;;;2.23;58.58
60061;BME280;45933;51.336;12.612;2024-01-16T03:55:34;98737.84;;;2.27;58.68
60061;BME280;45933;51.336;12.612;2024-01-16T03:57:59;98750.66;;;2.25;58.74
60061;BME280;45933;51.336;12.612;2024-01-16T04:00:24;98750.69;;;2.27;58.80
60061;BME280;45933;51.336;12.612;2024-01-16T04:02:50;98754.09;;;2.26;58.57
60061;BME280;45933;51.336;12.612;2024-01-16T04:05:15;98754.94;;;2.25;59.06
60061;BME280;45933;51.336;12.612;2024-01-16T04:07:40;98760.13;;;2.29;58.60
60061;BME280;45933;51.336;12.612;2024-01-16T04:10:06;98770.38;;;2.26;58.59
60061;BME280;45933;51.336;12.612;2024-01-16T04:12:32;98763.53;;;2.25;58.50
60061;BME280;45933;51.336;12.612;2024-01-16T04:14:57;98760.13;;;2.28;58.29
60061;BME280;45933;51.336;12.612;2024-01-16T04:17:22;98766.94;;;2.23;58.23
60061;BME280;45933;51.336;12.612;2024-01-16T04:19:47;98773.78;;;2.21;58.30
60061;BME280;45933;51.336;12.612;2024-01-16T04:22:12;98775.50;;;2.22;58.18
60061;BME280;45933;51.336;12.612;2024-01-16T04:24:38;98771.16;;;2.16;58.28
60061;BME280;45933;51.336;12.612;2024-01-16T04:27:03;98767.72;;;2.14;58.24
60061;BME280;45933;51.336;12.612;2024-01-16T04:29:29;98779.69;;;2.10;58.53
60061;BME280;45933;51.336;12.612;2024-01-16T04:31:54;98770.28;;;2.11;58.32
60061;BME280;45933;51.336;12.612;2024-01-16T04:34:20;98783.16;;;2.11;58.25
60061;BME280;45933;51.336;12.612;2024-01-16T04:36:45;98779.72;;;2.12;58.37
60061;BME280;45933;51.336;12.612;2024-01-16T04:39:10;98783.16;;;2.11;58.40
60061;BME280;45933;51.336;12.612;2024-01-16T04:41:36;98789.97;;;2.07;58.40
60061;BME280;45933;51.336;12.612;2024-01-16T04:44:01;98785.72;;;2.14;58.43
60061;BME280;45933;51.336;12.612;2024-01-16T04:46:26;98789.16;;;2.12;58.46
60061;BME280;45933;51.336;12.612;2024-01-16T04:48:51;98800.22;;;2.01;58.36
60061;BME280;45933;51.336;12.612;2024-01-16T04:51:17;98802.78;;;2.03;58.82
60061;BME280;45933;51.336;12.612;2024-01-16T04:53:42;98805.38;;;2.07;58.85
60061;BME280;45933;51.336;12.612;2024-01-16T04:56:07;98802.81;;;2.06;58.68
60061;BME280;45933;51.336;12.612;2024-01-16T04:58:32;98797.69;;;2.06;59.07
60061;BME280;45933;51.336;12.612;2024-01-16T05:00:58;98807.09;;;2.08;59.06
60061;BME280;45933;51.336;12.612;2024-01-16T05:03:23;98807.91;;;2.03;59.07
60061;BME280;45933;51.336;12.612;2024-01-16T05:05:49;98827.59;;;1.98;59.56
60061;BME280;45933;51.336;12.612;2024-01-16T05:08:14;98811.34;;;2.03;59.57
60061;BME280;45933;51.336;12.612;2024-01-16T05:10:39;98828.44;;;2.00;59.46
60061;BME280;45933;51.336;12.612;2024-01-16T05:13:04;98818.19;;;2.03;59.55
60061;BME280;45933;51.336;12.612;2024-01-16T05:15:30;98811.38;;;2.06;59.47
60061;BME280;45933;51.336;12.612;2024-01-16T05:17:55;98827.59;;;1.99;59.17
60061;BME280;45933;51.336;12.612;2024-01-16T05:20:20;98824.19;;;2.05;59.50
60061;BME280;45933;51.336;12.612;2024-01-16T05:22:47;98832.78;;;2.05;59.33
60061;BME280;45933;51.336;12.612;2024-01-16T05:25:12;98829.31;;;1.99;59.30
60061;BME280;45933;51.336;12.612;2024-01-16T05:27:37;98834.44;;;2.00;59.67
60061;BME280;45933;51.336;12.612;2024-01-16T05:30:03;98831.00;;;1.98;59.56
60061;BME280;45933;51.336;12.612;2024-01-16T05:32:28;98832.72;;;1.99;59.54
60061;BME280;45933;51.336;12.612;2024-01-16T05:34:53;98841.28;;;1.98;59.47
60061;BME280;45933;51.336;12.612;2024-01-16T05:37:19;98841.28;;;2.00;58.99
60061;BME280;45933;51.336;12.612;2024-01-16T05:39:44;98861.84;;;1.97;58.98
60061;BME280;45933;51.336;12.612;2024-01-16T05:42:10;98860.13;;;1.99;59.44
60061;BME280;45933;51.336;12.612;2024-01-16T05:44:36;98859.28;;;1.95;59.33
60061;BME280;45933;51.336;12.612;2024-01-16T05:47:01;98862.72;;;1.97;59.12
60061;BME280;45933;51.336;12.612;2024-01-16T05:49:27;98860.13;;;1.97;59.09
60061;BME280;45933;51.336;12.612;2024-01-16T05:51:52;98856.72;;;1.98;59.42
60061;BME280;45933;51.336;12.612;2024-01-16T05:54:18;98861.00;;;1.98;59.01
60061;BME280;45933;51.336;12.612;2024-01-16T05:56:43;98861.81;;;1.94;59.26
60061;BME280;45933;51.336;12.612;2024-01-16T05:59:08;98864.38;;;1.92;59.10
60061;BME280;45933;51.336;12.612;2024-01-16T06:01:33;98867.81;;;1.94;58.90
60061;BME280;45933;51.336;12.612;2024-01-16T06:03:59;98868.66;;;1.92;58.92
60061;BME280;45933;51.336;12.612;2024-01-16T06:06:25;98864.38;;;1.94;58.91
60061;BME280;45933;51.336;12.612;2024-01-16T06:08:50;98882.34;;;1.92;58.91
60061;BME280;45933;51.336;12.612;2024-01-16T06:11:15;98876.38;;;1.93;58.71
60061;BME280;45933;51.336;12.612;2024-01-16T06:13:41;98881.50;;;1.93;58.69
60061;BME280;45933;51.336;12.612;2024-01-16T06:16:06;98877.22;;;1.91;58.46
60061;BME280;45933;51.336;12.612;2024-01-16T06:18:34;98877.22;;;1.91;58.47
60061;BME280;45933;51.336;12.612;2024-01-16T06:20:59;98884.88;;;1.88;58.57
60061;BME280;45933;51.336;12.612;2024-01-16T06:23:25;98872.84;;;1.83;58.47
60061;BME280;45933;51.336;12.612;2024-01-16T06:25:50;98876.22;;;1.78;58.35
60061;BME280;45933;51.336;12.612;2024-01-16T06:28:15;98885.69;;;1.80;58.11
60061;BME280;45933;51.336;12.612;2024-01-16T06:30:40;98890.72;;;1.71;58.02
60061;BME280;45933;51.336;12.612;2024-01-16T06:33:06;98894.97;;;1.69;58.17
60061;BME280;45933;51.336;12.612;2024-01-16T06:35:31;98903.44;;;1.62;58.11
60061;BME280;45933;51.336;12.612;2024-01-16T06:37:56;98900.84;;;1.59;58.33
60061;BME280;45933;51.336;12.612;2024-01-16T06:40:21;98909.38;;;1.55;58.38
60061;BME280;45933;51.336;12.612;2024-01-16T06:42:47;98912.72;;;1.49;58.46
60061;BME280;45933;51.336;12.612;2024-01-16T06:45:12;98913.56;;;1.48;58.73
60061;BME280;45933;51.336;12.612;2024-01-16T06:47:38;98917.84;;;1.48;58.70
60061;BME280;45933;51.336;12.612;2024-01-16T06:50:04;98916.16;;;1.50;58.69
60061;BME280;45933;51.336;12.612;2024-01-16T06:52:29;98914.44;;;1.50;58.88
60061;BME280;45933;51.336;12.612;2024-01-16T06:54:54;98923.00;;;1.49;58.70
60061;BME280;45933;51.336;12.612;2024-01-16T06:57:20;98919.59;;;1.52;58.64
60061;BME280;45933;51.336;12.612;2024-01-16T06:59:45;98931.56;;;1.50;58.77
60061;BME280;45933;51.336;12.612;2024-01-16T07:02:11;98929.84;;;1.49;58.45
60061;BME280;45933;51.336;12.612;2024-01-16T07:04:36;98931.63;;;1.54;58.42
60061;BME280;45933;51.336;12.612;2024-01-16T07:07:02;98927.34;;;1.53;58.51
60061;BME280;45933;51.336;12.612;2024-01-16T07:09:28;98925.56;;;1.51;58.43
60061;BME280;45933;51.336;12.612;2024-01-16T07:11:53;98941.00;;;1.51;58.52
60061;BME280;45933;51.336;12.612;2024-01-16T07:14:19;98936.69;;;1.50;58.61
60061;BME280;45933;51.336;12.612;2024-01-16T07:16:44;98935.84;;;1.49;58.32
60061;BME280;45933;51.336;12.612;2024-01-16T07:19:09;98937.56;;;1.49;58.36
60061;BME280;45933;51.336;12.612;2024-01-16T07:21:35;98940.94;;;1.46;58.22
60061;BME280;45933;51.336;12.612;2024-01-16T07:24:00;98946.91;;;1.44;58.40
60061;BME280;45933;51.336;12.612;2024-01-16T07:26:26;98952.88;;;1.43;58.17
60061;BME280;45933;51.336;12.612;2024-01-16T07:28:51;98954.53;;;1.39;58.20
60061;BME280;45933;51.336;12.612;2024-01-16T07:31:16;98958.75;;;1.33;58.10
60061;BME280;45933;51.336;12.612;2024-01-16T07:33:42;98956.97;;;1.27;58.35
60061;BME280;45933;51.336;12.612;2024-01-16T07:36:08;98961.97;;;1.21;58.49
60061;BME280;45933;51.336;12.612;2024-01-16T07:38:35;98963.66;;;1.17;58.36
60061;BME280;45933;51.336;12.612;2024-01-16T07:41:01;98966.19;;;1.14;58.63
60061;BME280;45933;51.336;12.612;2024-01-16T07:43:27;98961.03;;;1.13;58.91
60061;BME280;45933;51.336;12.612;2024-01-16T07:45:52;98956.75;;;1.12;58.87
60061;BME280;45933;51.336;12.612;2024-01-16T07:48:17;98965.25;;;1.09;59.06
60061;BME280;45933;51.336;12.612;2024-01-16T07:50:43;98972.94;;;1.09;59.10
60061;BME280;45933;51.336;12.612;2024-01-16T07:53:09;98972.06;;;1.06;59.16
60061;BME280;45933;51.336;12.612;2024-01-16T07:55:34;98977.19;;;1.06;59.42
60061;BME280;45933;51.336;12.612;2024-01-16T07:58:01;98979.69;;;1.01;59.77
60061;BME280;45933;51.336;12.612;2024-01-16T08:00:29;98978.84;;;1.03;59.92
60061;BME280;45933;51.336;12.612;2024-01-16T08:02:54;98989.97;;;1.04;59.82
60061;BME280;45933;51.336;12.612;2024-01-16T08:05:19;98992.59;;;1.07;59.59
60061;BME280;45933;51.336;12.612;2024-01-16T08:07:46;99001.97;;;1.05;59.92
60061;BME280;45933;51.336;12.612;2024-01-16T08:10:12;99008.00;;;1.09;60.21
60061;BME280;45933;51.336;12.612;2024-01-16T08:12:37;99008.09;;;1.13;59.98
60061;BME280;45933;51.336;12.612;2024-01-16T08:15:04;99007.38;;;1.22;60.01
60061;BME280;45933;51.336;12.612;2024-01-16T08:17:29;99011.75;;;1.29;60.04
60061;BME280;45933;51.336;12.612;2024-01-16T08:19:54;99009.34;;;1.41;59.88
60061;BME280;45933;51.336;12.612;2024-01-16T08:22:20;99010.38;;;1.54;60.27
60061;BME280;45933;51.336;12.612;2024-01-16T08:24:45;99014.88;;;1.72;60.30
60061;BME280;45933;51.336;12.612;2024-01-16T08:27:10;99013.50;;;1.97;60.90
60061;BME280;45933;51.336;12.612;2024-01-16T08:29:35;99006.97;;;2.29;60.08
60061;BME280;45933;51.336;12.612;2024-01-16T08:32:00;99013.34;;;2.68;59.27
60061;BME280;45933;51.336;12.612;2024-01-16T08:34:26;99008.50;;;3.05;58.56
60061;BME280;45933;51.336;12.612;2024-01-16T08:36:51;99004.47;;;3.44;57.92
60061;BME280;45933;51.336;12.612;2024-01-16T08:39:21;99000.31;;;3.72;56.50
60061;BME280;45933;51.336;12.612;2024-01-16T08:41:47;99003.00;;;3.99;56.09
60061;BME280;45933;51.336;12.612;2024-01-16T08:44:12;99008.19;;;4.04;55.15
60061;BME280;45933;51.336;12.612;2024-01-16T08:46:37;99013.34;;;4.08;54.69
60061;BME280;45933;51.336;12.612;2024-01-16T08:49:02;99009.88;;;4.00;54.05
60061;BME280;45933;51.336;12.612;2024-01-16T08:51:28;99009.84;;;3.86;54.49
60061;BME280;45933;51.336;12.612;2024-01-16T08:53:53;99016.72;;;3.93;55.35
60061;BME280;45933;51.336;12.612;2024-01-16T08:56:18;99022.75;;;3.91;55.30
60061;BME280;45933;51.336;12.612;2024-01-16T08:58:43;99018.50;;;4.04;55.78
60061;BME280;45933;51.336;12.612;2024-01-16T09:01:09;99020.25;;;4.12;55.50
60061;BME280;45933;51.336;12.612;2024-01-16T09:03:35;99024.59;;;4.26;55.02
60061;BME280;45933;51.336;12.612;2024-01-16T09:06:01;99023.75;;;4.34;54.66
60061;BME280;45933;51.336;12.612;2024-01-16T09:08:27;99029.81;;;4.49;54.83
60061;BME280;45933;51.336;12.612;2024-01-16T09:10:53;99025.50;;;4.51;53.49
60061;BME280;45933;51.336;12.612;2024-01-16T09:13:19;99035.88;;;4.64;53.82
60061;BME280;45933;51.336;12.612;2024-01-16T09:15:45;99039.31;;;4.71;53.21
60061;BME280;45933;51.336;12.612;2024-01-16T09:18:11;99032.44;;;4.70;53.02
60061;BME280;45933;51.336;12.612;2024-01-16T09:20:37;99037.56;;;4.68;53.32
60061;BME280;45933;51.336;12.612;2024-01-16T09:23:02;99049.63;;;4.60;52.60
60061;BME280;45933;51.336;12.612;2024-01-16T09:25:27;99031.53;;;4.50;52.73
60061;BME280;45933;51.336;12.612;2024-01-16T09:27:54;99029.75;;;4.36;52.31
60061;BME280;45933;51.336;12.612;2024-01-16T09:30:20;99036.66;;;4.28;52.52
60061;BME280;45933;51.336;12.612;2024-01-16T09:32:47;99030.63;;;4.28;53.47
60061;BME280;45933;51.336;12.612;2024-01-16T09:35:13;99037.47;;;4.24;53.42
60061;BME280;45933;51.336;12.612;2024-01-16T09:37:38;99036.63;;;4.22;53.29
60061;BME280;45933;51.336;12.612;2024-01-16T09:40:05;99028.88;;;4.24;53.70
60061;BME280;45933;51.336;12.612;2024-01-16T09:42:31;99039.19;;;4.20;53.18
60061;BME280;45933;51.336;12.612;2024-01-16T09:44:56;99037.47;;;4.19;53.71
60061;BME280;45933;51.336;12.612;2024-01-16T09:47:24;99034.88;;;4.19;53.34
60061;BME280;45933;51.336;12.612;2024-01-16T09:49:49;99032.31;;;4.24;53.65
60061;BME280;45933;51.336;12.612;2024-01-16T09:52:15;99031.47;;;4.22;53.83
60061;BME280;45933;51.336;12.612;2024-01-16T09:54:40;99041.78;;;4.17;53.26
60061;BME280;45933;51.336;12.612;2024-01-16T09:57:07;99041.81;;;4.28;53.48
60061;BME280;45933;51.336;12.612;2024-01-16T09:59:32;99051.22;;;4.26;52.99
60061;BME280;45933;51.336;12.612;2024-01-16T10:02:01;99046.97;;;4.28;53.18
60061;BME280;45933;51.336;12.612;2024-01-16T10:04:30;99052.13;;;4.36;52.98
60061;BME280;45933;51.336;12.612;2024-01-16T10:06:56;99051.31;;;4.43;52.87
60061;BME280;45933;51.336;12.612;2024-01-16T10:09:23;99055.63;;;4.50;52.64
60061;BME280;45933;51.336;12.612;2024-01-16T10:11:50;99055.63;;;4.50;52.54
60061;BME280;45933;51.336;12.612;2024-01-16T10:14:17;99053.03;;;4.52;51.92
60061;BME280;45933;51.336;12.612;2024-01-16T10:17:01;99064.22;;;4.57;52.49
60061;BME280;45933;51.336;12.612;2024-01-16T10:19:53;99065.91;;;4.41;51.43
60061;BME280;45933;51.336;12.612;2024-01-16T10:22:20;99059.88;;;4.40;52.12
60061;BME280;45933;51.336;12.612;2024-01-16T10:24:47;99064.19;;;4.34;52.14
60061;BME280;45933;51.336;12.612;2024-01-16T10:27:15;99071.88;;;4.32;52.35
60061;BME280;45933;51.336;12.612;2024-01-16T10:29:55;99068.44;;;4.32;52.75
60061;BME280;45933;51.336;12.612;2024-01-16T10:32:27;99064.16;;;4.37;52.65
60061;BME280;45933;51.336;12.612;2024-01-16T10:35:14;99066.78;;;4.43;53.14
60061;BME280;45933;51.336;12.612;2024-01-16T10:37:51;99068.47;;;4.35;52.26
60061;BME280;45933;51.336;12.612;2024-01-16T10:40:17;99071.09;;;4.47;52.77
60061;BME280;45933;51.336;12.612;2024-01-16T10:42:44;99064.19;;;4.46;52.45
60061;BME280;45933;51.336;12.612;2024-01-16T10:45:16;99064.25;;;4.54;52.65
60061;BME280;45933;51.336;12.612;2024-01-16T10:47:42;99058.22;;;4.55;52.21
60061;BME280;45933;51.336;12.612;2024-01-16T10:50:08;99062.53;;;4.66;52.73
60061;BME280;45933;51.336;12.612;2024-01-16T10:52:35;99076.31;;;4.65;52.31
60061;BME280;45933;51.336;12.612;2024-01-16T10:55:03;99070.28;;;4.77;51.69
60061;BME280;45933;51.336;12.612;2024-01-16T10:57:31;99061.72;;;4.92;51.76
60061;BME280;45933;51.336;12.612;2024-01-16T11:00:04;99071.16;;;5.01;51.89
60061;BME280;45933;51.336;12.612;2024-01-16T11:02:37;99065.16;;;4.98;50.91
60061;BME280;45933;51.336;12.612;2024-01-16T11:05:04;99071.16;;;4.94;50.61
60061;BME280;45933;51.336;12.612;2024-01-16T11:07:33;99070.31;;;4.95;51.25
60061;BME280;45933;51.336;12.612;2024-01-16T11:09:59;99077.19;;;4.77;50.51
60061;BME280;45933;51.336;12.612;2024-01-16T11:12:26;99071.16;;;4.70;50.76
60061;BME280;45933;51.336;12.612;2024-01-16T11:14:52;99070.25;;;4.57;51.27
60061;BME280;45933;51.336;12.612;2024-01-16T11:17:19;99072.81;;;4.43;50.74
60061;BME280;45933;51.336;12.612;2024-01-16T11:19:46;99071.91;;;4.37;51.80
60061;BME280;45933;51.336;12.612;2024-01-16T11:22:14;99064.16;;;4.37;52.20
60061;BME280;45933;51.336;12.612;2024-01-16T11:24:41;99071.06;;;4.39;52.70
60061;BME280;45933;51.336;12.612;2024-01-16T11:27:07;99062.44;;;4.34;51.71
60061;BME280;45933;51.336;12.612;2024-01-16T11:29:34;99066.81;;;4.57;52.25
60061;BME280;45933;51.336;12.612;2024-01-16T11:32:00;99073.72;;;4.67;51.50
60061;BME280;45933;51.336;12.612;2024-01-16T11:34:58;99078.88;;;4.79;50.70
60061;BME280;45933;51.336;12.612;2024-01-16T11:37:27;99069.44;;;4.84;50.99
60061;BME280;45933;51.336;12.612;2024-01-16T11:42:42;99069.47;;;4.86;50.27
60061;BME280;45933;51.336;12.612;2024-01-16T11:45:28;99056.53;;;4.75;50.54
60061;BME280;45933;51.336;12.612;2024-01-16T11:48:15;99078.91;;;4.75;50.86
60061;BME280;45933;51.336;12.612;2024-01-16T11:50:42;99078.03;;;4.65;50.34
60061;BME280;45933;51.336;12.612;2024-01-16T11:53:07;99078.88;;;4.65;51.08
60061;BME280;45933;51.336;12.612;2024-01-16T11:55:35;99075.44;;;4.60;50.93
60061;BME280;45933;51.336;12.612;2024-01-16T11:58:45;99071.13;;;4.67;51.68
60061;BME280;45933;51.336;12.612;2024-01-16T12:01:11;99075.44;;;4.59;50.94
60061;BME280;45933;51.336;12.612;2024-01-16T12:03:37;99066.81;;;4.49;50.88
60061;BME280;45933;51.336;12.612;2024-01-16T12:06:02;99059.91;;;4.46;51.29
60061;BME280;45933;51.336;12.612;2024-01-16T12:08:31;99057.34;;;4.43;51.41
60061;BME280;45933;51.336;12.612;2024-01-16T12:10:56;99050.44;;;4.39;51.51
60061;BME280;45933;51.336;12.612;2024-01-16T12:13:22;99056.41;;;4.32;51.49
60061;BME280;45933;51.336;12.612;2024-01-16T12:15:48;99053.78;;;4.22;51.55
60061;BME280;45933;51.336;12.612;2024-01-16T12:18:19;99045.22;;;4.26;51.61
60061;BME280;45933;51.336;12.612;2024-01-16T12:20:44;99051.22;;;4.18;51.74
60061;BME280;45933;51.336;12.612;2024-01-16T12:23:09;99040.91;;;4.18;51.89
60061;BME280;45933;51.336;12.612;2024-01-16T12:25:37;99050.31;;;4.09;51.81
60061;BME280;45933;51.336;12.612;2024-01-16T12:28:03;99039.09;;;4.01;51.92
60061;BME280;45933;51.336;12.612;2024-01-16T12:30:36;99033.09;;;4.00;51.96
60061;BME280;45933;51.336;12.612;2024-01-16T12:33:12;99031.38;;;3.98;52.04
60061;BME280;45933;51.336;12.612;2024-01-16T12:35:42;99031.34;;;3.85;52.23
60061;BME280;45933;51.336;12.612;2024-01-16T12:38:10;99027.03;;;3.87;52.40
60061;BME280;45933;51.336;12.612;2024-01-16T12:40:39;99024.44;;;3.81;52.70
60061;BME280;45933;51.336;12.612;2024-01-16T12:43:05;99025.28;;;3.80;52.41
60061;BME280;45933;51.336;12.612;2024-01-16T12:45:31;99017.53;;;3.76;52.32
60061;BME280;45933;51.336;12.612;2024-01-16T12:47:59;99026.97;;;3.78;53.14
60061;BME280;45933;51.336;12.612;2024-01-16T12:50:27;99015.81;;;3.75;52.79
60061;BME280;45933;51.336;12.612;2024-01-16T12:53:11;99008.06;;;3.79;53.01
60061;BME280;45933;51.336;12.612;2024-01-16T12:55:40;99008.06;;;3.73;53.38
60061;BME280;45933;51.336;12.612;2024-01-16T12:58:18;99023.56;;;3.84;53.03
60061;BME280;45933;51.336;12.612;2024-01-16T13:00:49;99008.94;;;3.78;52.96